Ben Schoeman Airport

Airport
ICAO code: 
FAEL
IATA Code: 
ELS
Summary
ICAO Region: 
AFI
Territory: 
Location: 
, Eastern Cape
Serving: 
East London
Elevation: 
435 ft
Coordinates: 
Aerial View: 
33° 2' 8.048" S, 27° 49' 33.38" E
Metar
Observation
FAEL 031300Z 15009KT 110V190 9999 SCT025 20/14 Q1015
Station
East London, East London Airport
Date/Time
2021-12-03 13:00:00
Wind direction
150°
Wind speed
09 kts
Lowest cloud amount
scattered clouds
Temperature
20°C
Dew point
14°C
Humidity
68%
QNH
1015 hPa
Weather condition
n/a

Runways

Designator Length Width Surface Rops
6/24 1585 46 ASP Yes/Yes
11/29 1939 46 ASP Yes/Yes
Airport map: 
Aerial View: 

SKYbrary Partners:

Safety knowledge contributed by: